Time;durP1;ratioP1;P1;durP2;ratioP2;P2;SDS_P1;SDS_P2;PMS_P1;PMS_P2;Temp;Humidity;BMP_temperature;BMP_pressure;BME280_temperature;BME280_humidity;BME280_pressure;Samples;Min_cycle;Max_cycle;Signal;HPM_P1;HPM_P2
2021/12/13 00:03:15;;;;;;;4.55;3.50;;;;;;;-0.93;100.00;94745.22;10405163;28;20095;-76
2021/12/13 00:08:27;;;;;;;5.10;3.08;;;;;;;-1.08;100.00;94750.66;10421910;28;20578;-74
2021/12/13 00:13:45;;;;;;;5.57;3.35;;;;;;;-0.79;100.00;94751.31;10405958;28;20060;-73
2021/12/13 00:18:47;;;;;;;4.05;3.28;;;;;;;-1.13;100.00;94753.91;10388814;28;20124;-74
2021/12/13 00:23:54;;;;;;;5.18;3.90;;;;;;;-1.09;100.00;94762.22;10405060;28;20104;-74
2021/12/13 00:28:55;;;;;;;5.07;3.28;;;;;;;-1.31;100.00;94749.19;10421422;28;20029;-74
2021/12/13 00:34:20;;;;;;;9.82;3.05;;;;;;;-1.32;100.00;94752.03;10421766;28;20620;-78
2021/12/13 00:39:29;;;;;;;2.70;2.50;;;;;;;-1.17;100.00;94751.84;10406075;28;20344;-76
2021/12/13 00:44:35;;;;;;;2.75;2.35;;;;;;;-1.11;100.00;94746.59;10421795;28;20025;-79
2021/12/13 00:49:40;;;;;;;3.03;2.53;;;;;;;-1.19;100.00;94746.78;10441860;28;20178;-75
2021/12/13 00:54:42;;;;;;;3.58;3.25;;;;;;;-1.26;100.00;94754.66;10444823;28;20028;-80
2021/12/13 00:59:48;;;;;;;3.42;2.35;;;;;;;-1.18;100.00;94750.25;10444319;28;20017;-75
2021/12/13 01:05:22;;;;;;;2.85;2.55;;;;;;;-1.14;100.00;94749.66;10444898;28;20557;-80
2021/12/13 01:11:03;;;;;;;2.42;2.22;;;;;;;-1.00;100.00;94739.94;10432492;28;20105;-77
2021/12/13 01:16:34;;;;;;;4.18;2.72;;;;;;;-0.91;100.00;94746.66;10383976;28;20037;-74
2021/12/13 01:21:53;;;;;;;3.35;3.05;;;;;;;-0.89;100.00;94736.69;10404538;28;20030;-75
2021/12/13 01:26:53;;;;;;;4.07;2.75;;;;;;;-0.92;100.00;94741.53;10402792;28;20068;-75
2021/12/13 01:31:59;;;;;;;6.18;3.20;;;;;;;-0.89;100.00;94747.25;10403756;28;20430;-72
2021/12/13 01:37:12;;;;;;;4.85;2.38;;;;;;;-0.89;100.00;94741.97;10386317;28;20108;-72
2021/12/13 01:42:20;;;;;;;3.67;2.58;;;;;;;-0.92;100.00;94747.66;10403786;28;20032;-75
2021/12/13 01:47:31;;;;;;;4.25;3.13;;;;;;;-0.96;100.00;94743.78;10407915;28;20025;-73
2021/12/13 01:52:34;;;;;;;3.45;2.72;;;;;;;-1.16;100.00;94740.31;10443732;28;20049;-76
2021/12/13 01:57:50;;;;;;;4.20;3.58;;;;;;;-1.24;100.00;94743.94;10442717;28;20024;-77
2021/12/13 02:02:53;;;;;;;5.00;3.20;;;;;;;-1.41;100.00;94744.31;10442536;28;20013;-74
2021/12/13 02:08:16;;;;;;;4.38;3.17;;;;;;;-1.53;100.00;94745.06;10442197;28;20543;-73
2021/12/13 02:13:23;;;;;;;4.07;3.00;;;;;;;-1.56;100.00;94741.00;10441667;28;20033;-79
2021/12/13 02:18:27;;;;;;;3.20;2.40;;;;;;;-1.56;100.00;94741.00;10441703;28;20025;-76
2021/12/13 02:23:29;;;;;;;4.07;3.22;;;;;;;-1.77;100.00;94732.22;10425608;28;20029;-74
2021/12/13 02:28:33;;;;;;;3.97;3.47;;;;;;;-1.82;100.00;94737.25;10442668;28;20068;-74
2021/12/13 02:33:48;;;;;;;3.75;2.47;;;;;;;-1.85;100.00;94740.28;10441279;28;20032;-73
2021/12/13 02:38:52;;;;;;;5.07;3.25;;;;;;;-1.85;100.00;94747.38;10442749;28;20036;-82
2021/12/13 02:43:57;;;;;;;3.88;2.75;;;;;;;-1.89;100.00;94746.94;10441544;28;20851;-74
2021/12/13 02:49:03;;;;;;;5.20;3.30;;;;;;;-1.78;100.00;94748.22;10424499;28;20053;-75
2021/12/13 02:54:09;;;;;;;3.30;3.00;;;;;;;-1.84;100.00;94747.19;10415979;28;20368;-76
2021/12/13 02:59:11;;;;;;;3.38;2.58;;;;;;;-1.74;100.00;94754.72;10399057;28;20064;-73
2021/12/13 03:04:16;;;;;;;3.80;2.67;;;;;;;-1.73;100.00;94753.69;10399879;28;20061;-73
2021/12/13 03:09:22;;;;;;;3.92;3.30;;;;;;;-1.66;100.00;94748.47;10415550;28;20112;-78
2021/12/13 03:14:30;;;;;;;4.32;3.58;;;;;;;-1.80;100.00;94756.31;10415948;28;20113;-73
2021/12/13 03:19:42;;;;;;;4.80;3.83;;;;;;;-1.89;100.00;94753.00;10399682;28;20033;-75
2021/12/13 03:25:04;;;;;;;7.95;5.72;;;;;;;-1.98;100.00;94758.63;10415086;28;20038;-74
2021/12/13 03:30:10;;;;;;;4.60;4.18;;;;;;;-1.99;100.00;94752.56;10433344;28;20171;-75
2021/12/13 03:35:14;;;;;;;4.55;3.78;;;;;;;-2.11;100.00;94764.66;10432027;28;20029;-78
2021/12/13 03:40:19;;;;;;;5.22;3.60;;;;;;;-2.17;100.00;94763.59;10448019;28;20044;-75
2021/12/13 03:45:37;;;;;;;7.53;5.20;;;;;;;-2.24;100.00;94766.19;10448734;28;20021;-73
2021/12/13 03:50:43;;;;;;;;;;;;;;;-2.25;100.00;94758.47;10448079;28;20215;-78
2021/12/13 03:55:48;;;;;;;5.55;4.97;;;;;;;-2.22;100.00;94770.44;10446796;28;20500;-75
2021/12/13 04:00:58;;;;;;;5.53;4.55;;;;;;;-2.27;100.00;94771.84;10448239;28;20072;-79
2021/12/13 04:05:59;;;;;;;7.22;4.53;;;;;;;-2.27;100.00;94769.22;10431463;28;20104;-77
2021/12/13 04:11:11;;;;;;;6.95;5.38;;;;;;;-2.25;100.00;94764.59;10447343;28;20052;-78
2021/12/13 04:16:15;;;;;;;6.57;4.43;;;;;;;-2.32;100.00;94765.53;10447763;28;20088;-74
2021/12/13 04:21:17;;;;;;;8.05;4.80;;;;;;;-2.28;100.00;94769.41;10448142;28;20114;-78
2021/12/13 04:26:19;;;;;;;7.32;5.85;;;;;;;-2.31;100.00;94781.13;10429835;28;20029;-75
2021/12/13 04:31:23;;;;;;;7.43;5.13;;;;;;;-2.27;100.00;94789.47;10428724;28;20514;-78
2021/12/13 04:36:34;;;;;;;9.27;5.95;;;;;;;-2.24;100.00;94805.66;10408635;28;20032;-77
2021/12/13 04:41:55;;;;;;;8.73;6.43;;;;;;;-2.16;100.00;94796.84;10428487;28;20020;-77
2021/12/13 04:46:56;;;;;;;8.52;6.68;;;;;;;-1.98;100.00;94796.34;10445674;28;20059;-78
2021/12/13 04:52:18;;;;;;;19.73;7.70;;;;;;;-1.84;100.00;94802.50;10444871;28;20114;-77
2021/12/13 04:57:21;;;;;;;8.05;6.22;;;;;;;-1.85;100.00;94806.13;10426152;28;20029;-75
2021/12/13 05:02:22;;;;;;;7.78;6.65;;;;;;;-1.81;100.00;94814.47;10420975;28;20094;-78
2021/12/13 05:07:25;;;;;;;10.35;5.25;;;;;;;-1.95;100.00;94810.94;10422369;28;20550;-76
2021/12/13 05:12:28;;;;;;;7.68;6.47;;;;;;;-1.88;100.00;94814.44;10389859;28;20029;-75
2021/12/13 05:17:47;;;;;;;13.43;7.80;;;;;;;-2.02;100.00;94805.63;10434674;28;20483;-81
2021/12/13 05:23:00;;;;;;;9.48;7.00;;;;;;;-1.96;100.00;94814.56;10434428;28;20282;-73
2021/12/13 05:28:38;;;;;;;8.70;6.53;;;;;;;-1.75;100.00;94822.38;10403882;28;20049;-77
2021/12/13 05:33:41;;;;;;;14.45;7.00;;;;;;;-1.39;100.00;94824.00;10353192;28;20037;-78
2021/12/13 05:38:45;;;;;;;10.38;6.47;;;;;;;-1.24;100.00;94829.13;10404228;28;20132;-77
2021/12/13 05:43:55;;;;;;;18.20;8.93;;;;;;;-1.09;100.00;94820.25;10403106;28;20071;-78
2021/12/13 05:49:00;;;;;;;12.00;9.65;;;;;;;-0.91;100.00;94841.63;10415802;28;20191;-75
2021/12/13 05:54:23;;;;;;;9.68;7.05;;;;;;;-1.39;100.00;94834.53;10401365;28;20031;-79
2021/12/13 05:59:25;;;;;;;9.63;6.93;;;;;;;-1.15;100.00;94850.06;10417590;28;20025;-79
2021/12/13 06:04:56;;;;;;;10.85;6.90;;;;;;;-1.75;100.00;94847.94;10398205;28;20491;-74
2021/12/13 06:10:00;;;;;;;20.30;6.85;;;;;;;-1.53;100.00;94861.84;10398754;28;20017;-76
2021/12/13 06:15:20;;;;;;;14.80;7.45;;;;;;;-1.68;100.00;94866.44;10439961;28;20483;-77
2021/12/13 06:20:32;;;;;;;12.15;7.57;;;;;;;-1.50;100.00;94863.28;10442833;28;20479;-79
2021/12/13 06:25:34;;;;;;;12.85;8.80;;;;;;;-1.74;100.00;94874.09;10421400;28;20037;-77
2021/12/13 06:30:39;;;;;;;13.77;8.65;;;;;;;-1.81;100.00;94872.44;10402423;28;20613;-78
2021/12/13 06:35:51;;;;;;;11.18;7.93;;;;;;;-1.87;100.00;94874.00;10418061;28;20030;-80
2021/12/13 06:41:01;;;;;;;13.88;7.60;;;;;;;-1.96;100.00;94899.66;10400373;28;20029;-75
2021/12/13 06:46:09;;;;;;;16.45;9.02;;;;;;;-1.97;100.00;94890.13;10424938;28;20386;-77
2021/12/13 06:51:15;;;;;;;12.15;9.95;;;;;;;-2.07;100.00;94897.56;10441721;28;20048;-82
2021/12/13 06:56:27;;;;;;;10.23;7.68;;;;;;;-2.03;100.00;94904.06;10443636;28;20021;-79
2021/12/13 07:01:32;;;;;;;10.50;6.63;;;;;;;-1.96;100.00;94909.38;10446343;28;20143;-79
2021/12/13 07:06:33;;;;;;;10.27;8.50;;;;;;;-1.83;100.00;94912.09;10456236;28;20028;-77
2021/12/13 07:12:00;;;;;;;11.50;7.75;;;;;;;-1.79;100.00;94925.72;10457019;28;20036;-76
2021/12/13 07:17:21;;;;;;;10.57;7.97;;;;;;;-1.95;100.00;94913.66;10453039;28;20052;-78
2021/12/13 07:22:26;;;;;;;14.13;8.85;;;;;;;-2.00;100.00;94919.47;10455638;28;20479;-83
2021/12/13 07:27:33;;;;;;;12.65;10.18;;;;;;;-1.94;100.00;94920.53;10457604;28;20028;-79
2021/12/13 07:32:38;;;;;;;13.35;8.70;;;;;;;-1.87;100.00;94924.06;10456677;28;20067;-78
2021/12/13 07:37:42;;;;;;;12.25;8.43;;;;;;;-1.84;100.00;94928.09;10435538;28;20032;-77
2021/12/13 07:43:01;;;;;;;13.02;8.60;;;;;;;-1.73;100.00;94941.59;10431690;28;20068;-78
2021/12/13 07:48:31;;;;;;;12.05;8.68;;;;;;;-1.75;100.00;94945.41;10431885;28;20029;-80
2021/12/13 07:53:54;;;;;;;14.82;9.57;;;;;;;-1.69;100.00;94939.38;10450460;28;20460;-78
2021/12/13 07:59:03;;;;;;;15.98;9.45;;;;;;;-1.59;100.00;94945.13;10431826;28;20030;-80
2021/12/13 08:04:11;;;;;;;13.98;9.00;;;;;;;-1.64;100.00;94939.63;10416026;28;20079;-76
2021/12/13 08:09:20;;;;;;;13.02;8.65;;;;;;;-1.47;100.00;94934.06;10433482;28;20126;-80
2021/12/13 08:14:33;;;;;;;14.88;9.57;;;;;;;-1.60;100.00;94946.13;10424808;28;20032;-76
2021/12/13 08:19:34;;;;;;;14.13;8.35;;;;;;;-1.43;100.00;94941.38;10424833;28;20104;-76
2021/12/13 08:24:41;;;;;;;12.40;6.88;;;;;;;-1.25;100.00;94947.97;10392852;28;20101;-76
2021/12/13 08:29:43;;;;;;;12.02;7.90;;;;;;;-0.99;100.00;94942.03;10423041;28;20041;-74
2021/12/13 08:34:47;;;;;;;15.00;7.72;;;;;;;-0.92;100.00;94942.03;10424553;28;20060;-81
2021/12/13 08:39:53;;;;;;;11.82;7.20;;;;;;;-0.65;100.00;94945.63;10423004;28;20037;-81
2021/12/13 08:45:16;;;;;;;15.38;9.10;;;;;;;-0.60;100.00;94940.56;10415137;28;20495;-78
2021/12/13 08:50:24;;;;;;;12.13;8.38;;;;;;;-0.38;100.00;94935.13;10409508;28;20419;-78
2021/12/13 08:55:30;;;;;;;15.15;8.02;;;;;;;-0.35;100.00;94929.44;10447055;28;20060;-77
2021/12/13 09:00:52;;;;;;;10.95;7.43;;;;;;;-0.18;100.00;94933.34;10445875;28;20539;-75
2021/12/13 09:06:16;;;;;;;9.90;5.93;;;;;;;-0.32;100.00;94930.88;10446018;28;20025;-82
2021/12/13 09:11:51;;;;;;;11.80;7.90;;;;;;;-0.19;100.00;94942.28;10446794;28;20025;-74
2021/12/13 09:17:16;;;;;;;9.45;6.70;;;;;;;-0.03;100.00;94929.69;10447242;28;20036;-79
2021/12/13 09:22:36;;;;;;;10.88;6.88;;;;;;;-0.48;100.00;94935.50;10422222;28;20094;-79
2021/12/13 09:28:04;;;;;;;10.55;5.93;;;;;;;-0.72;100.00;94928.94;10404210;28;20022;-81
2021/12/13 09:33:17;;;;;;;12.27;7.60;;;;;;;-1.06;100.00;94915.63;10421282;28;20390;-78
2021/12/13 09:38:41;;;;;;;12.52;8.77;;;;;;;-1.01;100.00;94914.22;10407526;28;20072;-73
2021/12/13 09:43:47;;;;;;;10.65;7.60;;;;;;;-0.99;100.00;94920.09;10395194;28;20045;-75
2021/12/13 09:48:53;;;;;;;11.35;8.13;;;;;;;-1.13;100.00;94917.41;10406558;28;20045;-73
2021/12/13 09:53:56;;;;;;;11.93;8.63;;;;;;;-0.74;100.00;94926.50;10402593;28;20033;-81
2021/12/13 09:59:06;;;;;;;13.88;8.98;;;;;;;-0.45;100.00;94915.81;10438242;28;20083;-78
2021/12/13 10:04:30;;;;;;;12.82;7.30;;;;;;;-0.44;100.00;94920.91;10443916;28;20021;-75
2021/12/13 10:09:44;;;;;;;13.07;7.65;;;;;;;-0.07;100.00;94907.34;10427339;28;20117;-78
2021/12/13 10:15:07;;;;;;;12.85;6.90;;;;;;;-0.18;100.00;94908.78;10442381;28;20035;-77
2021/12/13 10:20:18;;;;;;;10.60;7.68;;;;;;;0.07;100.00;94900.22;10441459;28;20033;-78
2021/12/13 10:25:24;;;;;;;13.60;8.45;;;;;;;0.20;100.00;94899.44;10402996;28;20048;-74
2021/12/13 10:30:29;;;;;;;10.40;6.72;;;;;;;0.39;100.00;94890.69;10404006;28;20553;-81
2021/12/13 10:35:34;;;;;;;8.38;6.55;;;;;;;0.08;100.00;94875.44;10417210;28;20029;-80
2021/12/13 10:40:40;;;;;;;15.93;7.32;;;;;;;0.23;100.00;94888.44;10401552;28;20450;-77
2021/12/13 10:45:47;;;;;;;14.00;8.73;;;;;;;0.56;100.00;94882.28;10420085;28;20033;-76
2021/12/13 10:50:56;;;;;;;10.75;7.10;;;;;;;0.66;100.00;94872.91;10418075;28;20158;-82
2021/12/13 10:56:09;;;;;;;13.55;6.45;;;;;;;0.92;100.00;94883.63;10400623;28;20171;-77
2021/12/13 11:01:16;;;;;;;8.63;6.45;;;;;;;0.98;100.00;94882.78;10417655;28;20025;-81
2021/12/13 11:06:18;;;;;;;9.10;7.00;;;;;;;0.47;100.00;94881.69;10399818;28;20037;-77
2021/12/13 11:11:48;;;;;;;10.93;6.32;;;;;;;0.81;100.00;94877.13;10416374;28;20053;-78
2021/12/13 11:16:54;;;;;;;11.15;6.50;;;;;;;0.95;100.00;94883.19;10382359;28;20076;-78
2021/12/13 11:22:01;;;;;;;9.38;7.13;;;;;;;1.10;100.00;94872.34;10415871;28;20440;-80
2021/12/13 11:27:10;;;;;;;11.60;8.10;;;;;;;1.11;100.00;94871.34;10399367;28;20026;-78
2021/12/13 11:32:37;;;;;;;8.15;5.93;;;;;;;1.09;100.00;94878.66;10415176;28;20396;-79
2021/12/13 11:38:06;;;;;;;9.25;6.38;;;;;;;1.19;100.00;94879.84;10416169;28;20045;-82
2021/12/13 11:43:25;;;;;;;9.70;6.35;;;;;;;1.19;100.00;94874.53;10398875;28;20559;-83
2021/12/13 11:48:41;;;;;;;9.20;6.28;;;;;;;1.08;100.00;94877.84;10419068;28;20046;-79
2021/12/13 11:53:41;;;;;;;10.15;7.15;;;;;;;1.12;100.00;94878.25;10410023;28;20090;-79
2021/12/13 11:59:07;;;;;;;11.02;6.90;;;;;;;1.24;100.00;94891.63;10425108;28;20029;-79
2021/12/13 12:04:27;;;;;;;11.07;7.05;;;;;;;1.41;100.00;94876.06;10424812;28;20044;-77
2021/12/13 12:09:48;;;;;;;8.88;6.03;;;;;;;1.51;100.00;94876.44;10425400;28;20466;-81
2021/12/13 12:14:59;;;;;;;10.15;7.95;;;;;;;1.46;100.00;94881.53;10430637;28;20041;-80
2021/12/13 12:20:00;;;;;;;14.93;8.75;;;;;;;1.48;100.00;94882.13;10409299;28;20059;-72
2021/12/13 12:25:01;;;;;;;9.85;7.13;;;;;;;1.57;100.00;94874.75;10407756;28;20037;-73
2021/12/13 12:30:13;;;;;;;11.82;7.05;;;;;;;0.97;100.00;94871.38;10390689;28;20017;-84
2021/12/13 12:35:16;;;;;;;10.57;7.43;;;;;;;0.55;100.00;94886.78;10424181;28;20471;-79
2021/12/13 12:40:23;;;;;;;12.38;7.68;;;;;;;0.65;100.00;94878.41;10422788;28;20033;-81
2021/12/13 12:45:43;;;;;;;12.85;7.93;;;;;;;0.27;100.00;94890.47;10406059;28;20040;-80
2021/12/13 12:50:57;;;;;;;12.02;8.43;;;;;;;0.13;100.00;94886.22;10422953;28;20056;-72
2021/12/13 12:56:05;;;;;;;14.85;9.38;;;;;;;0.66;100.00;94886.13;10407472;28;20029;-79
2021/12/13 13:01:15;;;;;;;11.85;9.40;;;;;;;0.64;100.00;94893.47;10406905;28;20026;-80
2021/12/13 13:06:22;;;;;;;15.93;9.20;;;;;;;0.90;100.00;94894.41;10421455;28;20653;-76
2021/12/13 13:11:29;;;;;;;15.48;9.20;;;;;;;0.42;100.00;94892.91;10389418;28;20096;-77
2021/12/13 13:16:35;;;;;;;16.13;10.05;;;;;;;0.22;100.00;94898.19;10422092;28;20029;-83
2021/12/13 13:21:44;;;;;;;18.13;9.95;;;;;;;0.34;100.00;94915.06;10406623;28;20593;-73
2021/12/13 13:26:46;;;;;;;18.45;10.07;;;;;;;0.59;100.00;94910.97;10387925;28;20056;-77
2021/12/13 13:32:00;;;;;;;17.20;9.75;;;;;;;0.56;100.00;94911.38;10405198;28;20529;-79
2021/12/13 13:37:08;;;;;;;15.38;9.05;;;;;;;0.53;100.00;94922.38;10404075;28;20033;-72
2021/12/13 13:42:26;;;;;;;15.23;8.73;;;;;;;0.76;100.00;94929.88;10420543;28;20072;-75
2021/12/13 13:47:37;;;;;;;19.38;10.93;;;;;;;0.09;100.00;94928.09;10420298;28;20033;-81
2021/12/13 13:52:44;;;;;;;14.73;8.75;;;;;;;0.40;100.00;94934.56;10403358;28;20519;-84
2021/12/13 13:57:49;;;;;;;17.35;9.18;;;;;;;0.34;100.00;94932.78;10418340;28;20038;-79
2021/12/13 14:02:50;;;;;;;20.77;10.85;;;;;;;0.40;100.00;94947.00;10403447;28;20061;-78
2021/12/13 14:07:51;;;;;;;17.40;10.95;;;;;;;-0.05;100.00;94948.41;10401441;28;20116;-77
2021/12/13 14:13:01;;;;;;;21.58;11.52;;;;;;;-0.08;100.00;94954.09;10402891;28;20063;-81
2021/12/13 14:18:14;;;;;;;12.98;9.98;;;;;;;-0.10;100.00;94961.38;10403706;28;20112;-81
2021/12/13 14:23:30;;;;;;;15.75;8.93;;;;;;;-0.16;100.00;94966.69;10418223;28;20037;-76
2021/12/13 14:28:55;;;;;;;15.07;9.60;;;;;;;-0.27;100.00;94966.22;10402035;28;20040;-78
2021/12/13 14:33:59;;;;;;;16.27;9.32;;;;;;;-0.18;100.00;94970.31;10418417;28;20029;-77
2021/12/13 14:39:14;;;;;;;16.90;9.00;;;;;;;0.09;100.00;94977.50;10417553;28;20033;-78
2021/12/13 14:44:17;;;;;;;17.85;10.00;;;;;;;0.29;100.00;94980.97;10403918;28;20035;-78
2021/12/13 14:49:24;;;;;;;20.02;10.30;;;;;;;0.40;100.00;94979.53;10441068;28;20041;-79
2021/12/13 14:54:28;;;;;;;15.50;9.17;;;;;;;0.41;100.00;94980.34;10426336;28;20119;-80
2021/12/13 14:59:31;;;;;;;15.05;8.48;;;;;;;0.42;100.00;94982.78;10442438;28;20437;-78
2021/12/13 15:04:33;;;;;;;18.27;10.20;;;;;;;0.21;100.00;94996.19;10440287;28;20044;-76
2021/12/13 15:09:41;;;;;;;17.38;9.88;;;;;;;0.37;100.00;94987.06;10441254;28;20162;-79
2021/12/13 15:14:47;;;;;;;16.90;11.83;;;;;;;0.56;100.00;94988.91;10441996;28;20115;-77
2021/12/13 15:19:56;;;;;;;17.60;10.75;;;;;;;0.44;100.00;94991.31;10441189;28;20032;-77
2021/12/13 15:24:58;;;;;;;19.98;10.68;;;;;;;0.36;100.00;94991.53;10447488;28;20033;-77
2021/12/13 15:30:07;;;;;;;19.40;9.60;;;;;;;0.45;100.00;94994.81;10432971;28;20414;-82
2021/12/13 15:35:11;;;;;;;17.45;11.63;;;;;;;0.53;100.00;95005.19;10449687;28;20115;-76
2021/12/13 15:40:28;;;;;;;17.52;10.68;;;;;;;0.64;100.00;95009.03;10450547;28;20037;-79
2021/12/13 15:45:31;;;;;;;19.20;9.23;;;;;;;0.73;100.00;95010.44;10450581;28;20438;-76
2021/12/13 15:50:34;;;;;;;17.67;10.82;;;;;;;0.66;100.00;95013.09;10449039;28;20041;-81
2021/12/13 15:55:44;;;;;;;18.27;9.10;;;;;;;0.55;100.00;95005.78;10449520;28;20106;-80
2021/12/13 16:00:47;;;;;;;16.48;9.10;;;;;;;0.59;100.00;95012.28;10449158;28;20039;-79
2021/12/13 16:05:48;;;;;;;15.57;8.52;;;;;;;0.28;100.00;95013.69;10413873;28;20030;-78
2021/12/13 16:10:49;;;;;;;14.80;8.43;;;;;;;0.31;100.00;95017.78;10405645;28;20026;-77
2021/12/13 16:15:49;;;;;;;12.18;8.75;;;;;;;0.01;100.00;95020.75;10443022;28;20420;-80
2021/12/13 16:20:52;;;;;;;12.40;8.68;;;;;;;0.10;100.00;95018.75;10446006;28;20124;-76
2021/12/13 16:25:57;;;;;;;13.25;8.43;;;;;;;0.07;100.00;95027.91;10405889;28;20029;-80
2021/12/13 16:31:01;;;;;;;11.02;7.47;;;;;;;-0.02;100.00;95031.72;10405774;28;20031;-76
2021/12/13 16:36:25;;;;;;;11.60;7.55;;;;;;;-0.28;100.00;95038.56;10437274;28;20029;-80
2021/12/13 16:41:28;;;;;;;15.00;8.70;;;;;;;0.03;100.00;95049.63;10446459;28;20126;-72
2021/12/13 16:46:29;;;;;;;14.98;8.75;;;;;;;0.26;100.00;95051.91;10447566;28;20100;-74
2021/12/13 16:51:39;;;;;;;14.85;8.52;;;;;;;0.36;100.00;95054.16;10445525;28;20183;-75
2021/12/13 16:56:41;;;;;;;19.20;9.82;;;;;;;0.47;100.00;95054.38;10444815;28;20078;-80
2021/12/13 17:01:49;;;;;;;15.68;10.48;;;;;;;0.32;100.00;95061.69;10445509;28;20075;-77
2021/12/13 17:06:54;;;;;;;18.75;10.07;;;;;;;0.25;100.00;95064.34;10444916;28;20032;-82
2021/12/13 17:12:23;;;;;;;15.07;8.15;;;;;;;0.19;100.00;95070.41;10444824;28;20510;-79
2021/12/13 17:17:31;;;;;;;19.60;10.20;;;;;;;0.36;100.00;95075.31;10441223;28;20098;-77
2021/12/13 17:22:34;;;;;;;14.88;9.10;;;;;;;0.37;100.00;95076.97;10443804;28;20070;-76
2021/12/13 17:27:36;;;;;;;15.88;10.32;;;;;;;0.46;100.00;95075.72;10441991;28;20115;-79
2021/12/13 17:32:39;;;;;;;18.25;9.38;;;;;;;0.37;100.00;95071.66;10472428;28;20032;-81
2021/12/13 17:37:47;;;;;;;18.88;9.23;;;;;;;0.39;100.00;95070.47;10446392;28;20029;-80
2021/12/13 17:43:02;;;;;;;17.58;9.27;;;;;;;0.20;100.00;95069.41;10449949;28;20121;-74
2021/12/13 17:48:09;;;;;;;15.63;8.35;;;;;;;0.17;100.00;95083.81;10469738;28;20025;-81
2021/12/13 17:53:18;;;;;;;18.15;10.27;;;;;;;0.36;100.00;95094.63;10421380;28;20037;-77
2021/12/13 17:58:41;;;;;;;17.67;10.52;;;;;;;0.47;100.00;95080.00;10415135;28;20043;-76
2021/12/13 18:03:49;;;;;;;16.17;10.88;;;;;;;0.46;100.00;95084.50;10444021;28;20123;-77
2021/12/13 18:09:14;;;;;;;21.50;10.63;;;;;;;0.50;100.00;95085.72;10441928;28;20031;-79
2021/12/13 18:14:46;;;;;;;18.63;10.02;;;;;;;0.50;100.00;95090.19;10440423;28;20032;-74
2021/12/13 18:20:12;;;;;;;13.80;9.15;;;;;;;0.57;100.00;95087.56;10565239;23;20068;-76
2021/12/13 18:25:19;;;;;;;18.20;8.90;;;;;;;0.46;100.00;95081.84;10433562;28;20502;-73
2021/12/13 18:30:24;;;;;;;17.15;9.40;;;;;;;0.42;100.00;95091.19;10440542;28;20055;-78
2021/12/13 18:35:28;;;;;;;16.20;9.20;;;;;;;0.38;100.00;95094.44;10439187;28;20029;-77
2021/12/13 18:40:38;;;;;;;18.35;8.55;;;;;;;0.30;100.00;95095.44;10439601;28;20029;-79
2021/12/13 18:45:47;;;;;;;16.38;9.55;;;;;;;0.23;100.00;95099.91;10447023;28;20033;-82
2021/12/13 18:50:53;;;;;;;13.95;9.13;;;;;;;0.09;100.00;95102.50;10447789;28;20032;-83
2021/12/13 18:56:04;;;;;;;13.77;8.75;;;;;;;0.11;100.00;95097.84;10445806;28;20029;-83
2021/12/13 19:01:12;;;;;;;15.98;9.20;;;;;;;0.23;100.00;95108.63;10445589;28;20033;-84
2021/12/13 19:06:17;;;;;;;12.38;8.07;;;;;;;0.23;100.00;95100.72;10443173;28;20034;-83
2021/12/13 19:11:28;;;;;;;18.27;8.82;;;;;;;0.29;100.00;95096.44;10404548;28;20021;-84
2021/12/13 19:16:58;;;;;;;13.75;8.35;;;;;;;0.22;100.00;95100.91;10406290;28;20048;-81
2021/12/13 19:22:06;;;;;;;15.43;9.45;;;;;;;0.20;100.00;95102.94;10435081;28;20053;-79
2021/12/13 19:27:15;;;;;;;18.70;9.73;;;;;;;0.06;100.00;95102.09;10419265;28;20121;-79
2021/12/13 19:32:19;;;;;;;16.10;9.02;;;;;;;0.05;100.00;95109.19;10417084;28;20501;-76
2021/12/13 19:37:42;;;;;;;12.98;8.52;;;;;;;0.08;100.00;95110.63;10421455;28;20053;-76
2021/12/13 19:42:43;;;;;;;15.82;8.77;;;;;;;0.22;100.00;95116.75;10407785;28;20029;-77
2021/12/13 19:47:56;;;;;;;15.10;9.77;;;;;;;0.26;100.00;95121.44;10417119;28;20028;-77
2021/12/13 19:53:24;;;;;;;17.48;10.38;;;;;;;0.31;100.00;95121.69;10420121;28;20017;-80
2021/12/13 19:58:28;;;;;;;14.27;7.57;;;;;;;0.21;100.00;95131.00;10397711;28;20029;-79
2021/12/13 20:03:36;;;;;;;12.30;8.85;;;;;;;0.15;100.00;95120.22;10423051;28;20049;-80
2021/12/13 20:08:59;;;;;;;18.33;9.00;;;;;;;0.14;100.00;95129.16;10418413;28;20501;-75
2021/12/13 20:14:09;;;;;;;15.40;8.75;;;;;;;0.17;100.00;95120.00;10419836;28;20056;-77
2021/12/13 20:19:33;;;;;;;14.32;7.93;;;;;;;0.17;100.00;95114.72;10405118;28;20133;-69
2021/12/13 20:24:41;;;;;;;13.60;7.68;;;;;;;0.28;100.00;95108.88;10487537;28;20113;-74
2021/12/13 20:29:46;;;;;;;15.40;8.20;;;;;;;0.44;100.00;95115.59;10430436;28;20028;-74
2021/12/13 20:34:52;;;;;;;14.10;7.65;;;;;;;0.43;100.00;95119.28;10404833;28;20060;-76
2021/12/13 20:39:57;;;;;;;13.10;7.30;;;;;;;0.42;100.00;95128.22;10404944;28;20029;-72
2021/12/13 20:45:21;;;;;;;12.30;7.65;;;;;;;0.22;100.00;95112.28;10414884;28;20104;-69
2021/12/13 20:50:40;;;;;;;12.73;8.40;;;;;;;-0.13;100.00;95116.84;10420232;28;20044;-72
2021/12/13 20:55:47;;;;;;;15.50;8.00;;;;;;;-0.18;100.00;95120.88;10402978;28;20025;-73
2021/12/13 21:01:18;;;;;;;13.90;8.52;;;;;;;-0.22;100.00;95121.50;10403232;28;20112;-68
2021/12/13 21:06:38;;;;;;;15.38;9.00;;;;;;;-0.12;100.00;95129.84;10434061;28;20033;-73
2021/12/13 21:11:48;;;;;;;16.00;7.88;;;;;;;-0.57;100.00;95135.50;10448482;28;20568;-70
2021/12/13 21:16:54;;;;;;;21.77;10.00;;;;;;;-0.71;100.00;95131.16;10456718;28;20028;-75
2021/12/13 21:22:11;;;;;;;15.70;8.40;;;;;;;-0.39;100.00;95128.91;10457123;28;20059;-72
2021/12/13 21:27:32;;;;;;;14.93;7.85;;;;;;;-0.25;100.00;95122.69;10451578;28;20085;-73
2021/12/13 21:32:37;;;;;;;12.23;7.88;;;;;;;-0.44;100.00;95121.56;10443752;28;20032;-77
2021/12/13 21:42:58;;;;;;;17.05;9.80;;;;;;;-0.87;100.00;95124.34;10443924;28;20776;-70
2021/12/13 21:48:08;;;;;;;14.57;9.98;;;;;;;-0.62;100.00;95131.81;10443556;28;20025;-74
2021/12/13 21:53:38;;;;;;;17.40;8.77;;;;;;;-0.67;100.00;95126.28;10442310;28;20041;-72
2021/12/13 21:58:51;;;;;;;18.60;9.63;;;;;;;-0.74;100.00;95126.25;10400391;28;20275;-70
2021/12/13 22:04:08;;;;;;;13.90;8.88;;;;;;;-0.66;100.00;95127.94;10400834;28;20418;-76
2021/12/13 22:09:15;;;;;;;14.05;8.07;;;;;;;-0.72;100.00;95137.44;10400428;28;20534;-71
2021/12/13 22:14:25;;;;;;;16.33;8.10;;;;;;;-0.82;100.00;95132.50;10400574;28;20037;-73
2021/12/13 22:19:32;;;;;;;18.40;8.80;;;;;;;-0.61;100.00;95141.38;10399827;28;20041;-72
2021/12/13 22:24:40;;;;;;;11.95;8.07;;;;;;;-0.58;100.00;95135.72;10480314;28;20032;-71
2021/12/13 22:29:41;;;;;;;;;;;;;;;-0.44;100.00;95144.53;10434272;28;20082;-70
2021/12/13 22:34:59;;;;;;;15.60;8.55;;;;;;;-0.31;100.00;95144.59;10398953;28;20400;-71
2021/12/13 22:40:04;;;;;;;;;;;;;;;-0.28;100.00;95135.47;10400533;28;20029;-72
2021/12/13 22:45:06;;;;;;;11.00;7.10;;;;;;;-0.50;100.00;95132.09;10412977;28;20702;-79
2021/12/13 22:50:12;;;;;;;11.55;8.55;;;;;;;-0.66;100.00;95122.66;10425288;28;20025;-73
2021/12/13 22:55:20;;;;;;;14.20;8.52;;;;;;;-0.62;100.00;95123.91;10398408;28;20626;-71
2021/12/13 23:00:30;;;;;;;11.70;7.32;;;;;;;-0.62;100.00;95108.06;10423655;28;20461;-77
2021/12/13 23:05:32;;;;;;;11.40;7.07;;;;;;;-0.79;100.00;95110.19;10423231;28;20037;-70
2021/12/13 23:10:54;;;;;;;11.68;7.68;;;;;;;-0.88;100.00;95110.34;10440521;28;20437;-74
2021/12/13 23:16:06;;;;;;;13.75;7.28;;;;;;;-1.01;100.00;95110.22;10439556;28;20708;-74
2021/12/13 23:21:07;;;;;;;14.32;7.53;;;;;;;-0.97;100.00;95108.03;10451358;28;20086;-76
2021/12/13 23:26:09;;;;;;;10.60;7.50;;;;;;;-0.77;100.00;95111.59;10468299;28;20044;-73
2021/12/13 23:31:14;;;;;;;18.83;8.23;;;;;;;-0.71;100.00;95102.94;10423322;28;20067;-75
2021/12/13 23:36:30;;;;;;;12.02;8.30;;;;;;;-0.85;100.00;95106.50;10440151;28;20033;-75
2021/12/13 23:47:07;;;;;;;9.15;5.60;;;;;;;-0.89;100.00;95108.69;10448191;28;20534;-69
2021/12/13 23:52:14;;;;;;;7.90;4.90;;;;;;;-1.00;100.00;95098.69;10447507;28;20387;-75